sensor_id;sensor_type;location;lat;lon;timestamp;pressure;altitude;pressure_sealevel;temperature;humidity
35655;BME280;21773;50.010;19.972;2024-01-27T00:02:34;98937.38;;;10.24;100.00
35655;BME280;21773;50.010;19.972;2024-01-27T00:05:37;98935.13;;;10.21;100.00
35655;BME280;21773;50.010;19.972;2024-01-27T00:08:42;98960.19;;;10.15;100.00
35655;BME280;21773;50.010;19.972;2024-01-27T00:11:45;98972.44;;;10.18;100.00
35655;BME280;21773;50.010;19.972;2024-01-27T00:14:48;98996.91;;;10.16;100.00
35655;BME280;21773;50.010;19.972;2024-01-27T00:17:52;99009.66;;;9.83;100.00
35655;BME280;21773;50.010;19.972;2024-01-27T00:21:20;99035.38;;;9.79;100.00
35655;BME280;21773;50.010;19.972;2024-01-27T00:24:24;99049.06;;;9.77;100.00
35655;BME280;21773;50.010;19.972;2024-01-27T00:27:29;99029.78;;;9.74;100.00
35655;BME280;21773;50.010;19.972;2024-01-27T00:30:32;99053.00;;;9.75;100.00
35655;BME280;21773;50.010;19.972;2024-01-27T00:33:35;99065.25;;;9.64;100.00
35655;BME280;21773;50.010;19.972;2024-01-27T00:36:42;99067.72;;;9.66;100.00
35655;BME280;21773;50.010;19.972;2024-01-27T00:39:52;99068.75;;;9.71;100.00
35655;BME280;21773;50.010;19.972;2024-01-27T00:42:55;99058.00;;;9.58;100.00
35655;BME280;21773;50.010;19.972;2024-01-27T00:45:58;99061.97;;;9.55;100.00
35655;BME280;21773;50.010;19.972;2024-01-27T00:49:01;99081.84;;;9.54;100.00
35655;BME280;21773;50.010;19.972;2024-01-27T00:52:05;99094.50;;;9.47;100.00
35655;BME280;21773;50.010;19.972;2024-01-27T00:55:09;99108.16;;;9.52;100.00
35655;BME280;21773;50.010;19.972;2024-01-27T00:58:13;99109.38;;;9.56;100.00
35655;BME280;21773;50.010;19.972;2024-01-27T01:01:16;99114.13;;;9.54;100.00
35655;BME280;21773;50.010;19.972;2024-01-27T01:04:19;99125.28;;;9.65;100.00
35655;BME280;21773;50.010;19.972;2024-01-27T01:07:22;99121.16;;;9.55;100.00
35655;BME280;21773;50.010;19.972;2024-01-27T01:10:26;99118.06;;;9.52;100.00
35655;BME280;21773;50.010;19.972;2024-01-27T01:13:30;99123.66;;;9.44;100.00
35655;BME280;21773;50.010;19.972;2024-01-27T01:16:33;99122.63;;;9.45;100.00
35655;BME280;21773;50.010;19.972;2024-01-27T01:19:36;99131.97;;;9.42;100.00
35655;BME280;21773;50.010;19.972;2024-01-27T01:22:39;99148.09;;;9.16;100.00
35655;BME280;21773;50.010;19.972;2024-01-27T01:25:44;99139.19;;;9.16;100.00
35655;BME280;21773;50.010;19.972;2024-01-27T01:28:47;99151.38;;;9.05;100.00
35655;BME280;21773;50.010;19.972;2024-01-27T01:31:50;99153.66;;;9.01;100.00
35655;BME280;21773;50.010;19.972;2024-01-27T01:34:53;99148.09;;;9.16;100.00
35655;BME280;21773;50.010;19.972;2024-01-27T01:37:56;99160.91;;;9.01;100.00
35655;BME280;21773;50.010;19.972;2024-01-27T01:41:00;99158.22;;;9.01;100.00
35655;BME280;21773;50.010;19.972;2024-01-27T01:44:04;99164.22;;;9.03;100.00
35655;BME280;21773;50.010;19.972;2024-01-27T01:47:07;99173.94;;;9.10;100.00
35655;BME280;21773;50.010;19.972;2024-01-27T01:50:11;99165.69;;;9.12;100.00
35655;BME280;21773;50.010;19.972;2024-01-27T01:53:14;99171.44;;;9.09;100.00
35655;BME280;21773;50.010;19.972;2024-01-27T01:56:19;99165.28;;;9.08;100.00
35655;BME280;21773;50.010;19.972;2024-01-27T01:59:22;99195.88;;;9.14;100.00
35655;BME280;21773;50.010;19.972;2024-01-27T02:02:25;99180.56;;;9.14;100.00
35655;BME280;21773;50.010;19.972;2024-01-27T02:05:28;99189.09;;;9.18;100.00
35655;BME280;21773;50.010;19.972;2024-01-27T02:08:32;99189.47;;;9.15;100.00
35655;BME280;21773;50.010;19.972;2024-01-27T02:11:36;99180.81;;;9.26;100.00
35655;BME280;21773;50.010;19.972;2024-01-27T02:14:39;99189.06;;;9.25;100.00
35655;BME280;21773;50.010;19.972;2024-01-27T02:17:42;99185.34;;;9.26;100.00
35655;BME280;21773;50.010;19.972;2024-01-27T02:20:45;99183.69;;;9.25;100.00
35655;BME280;21773;50.010;19.972;2024-01-27T02:23:48;99183.28;;;9.21;100.00
35655;BME280;21773;50.010;19.972;2024-01-27T02:26:53;99183.06;;;9.16;100.00
35655;BME280;21773;50.010;19.972;2024-01-27T02:29:56;99149.31;;;8.94;100.00
35655;BME280;21773;50.010;19.972;2024-01-27T02:33:00;99188.41;;;9.09;100.00
35655;BME280;21773;50.010;19.972;2024-01-27T02:36:03;99185.09;;;8.94;100.00
35655;BME280;21773;50.010;19.972;2024-01-27T02:39:07;99188.16;;;8.85;100.00
35655;BME280;21773;50.010;19.972;2024-01-27T02:42:11;99194.38;;;8.79;100.00
35655;BME280;21773;50.010;19.972;2024-01-27T02:45:14;99195.81;;;8.75;100.00
35655;BME280;21773;50.010;19.972;2024-01-27T02:48:18;99200.56;;;8.73;100.00
35655;BME280;21773;50.010;19.972;2024-01-27T02:51:21;99200.81;;;8.84;100.00
35655;BME280;21773;50.010;19.972;2024-01-27T02:54:24;99175.66;;;8.51;100.00
35655;BME280;21773;50.010;19.972;2024-01-27T02:57:30;99195.59;;;8.69;100.00
35655;BME280;21773;50.010;19.972;2024-01-27T03:00:33;99201.94;;;8.49;100.00
35655;BME280;21773;50.010;19.972;2024-01-27T03:03:37;99201.53;;;8.58;100.00
35655;BME280;21773;50.010;19.972;2024-01-27T03:06:40;99207.31;;;8.55;100.00
35655;BME280;21773;50.010;19.972;2024-01-27T03:09:43;99215.38;;;8.55;100.00
35655;BME280;21773;50.010;19.972;2024-01-27T03:12:48;99225.53;;;8.60;100.00
35655;BME280;21773;50.010;19.972;2024-01-27T03:15:51;99225.97;;;8.63;100.00
35655;BME280;21773;50.010;19.972;2024-01-27T03:18:54;99231.94;;;8.65;100.00
35655;BME280;21773;50.010;19.972;2024-01-27T03:21:58;99223.03;;;8.58;100.00
35655;BME280;21773;50.010;19.972;2024-01-27T03:25:01;99239.63;;;8.68;100.00
35655;BME280;21773;50.010;19.972;2024-01-27T03:28:05;99247.28;;;8.72;100.00
35655;BME280;21773;50.010;19.972;2024-01-27T03:31:08;99250.00;;;8.85;100.00
35655;BME280;21773;50.010;19.972;2024-01-27T03:34:12;99255.81;;;8.88;100.00
35655;BME280;21773;50.010;19.972;2024-01-27T03:37:16;99270.28;;;8.87;100.00
35655;BME280;21773;50.010;19.972;2024-01-27T03:40:19;99258.91;;;8.85;100.00
35655;BME280;21773;50.010;19.972;2024-01-27T03:43:23;99262.88;;;8.89;100.00
35655;BME280;21773;50.010;19.972;2024-01-27T03:46:26;99237.56;;;8.70;100.00
35655;BME280;21773;50.010;19.972;2024-01-27T03:49:30;99254.97;;;8.81;100.00
35655;BME280;21773;50.010;19.972;2024-01-27T03:52:33;99259.09;;;8.77;100.00
35655;BME280;21773;50.010;19.972;2024-01-27T03:55:37;99246.06;;;8.81;100.00
35655;BME280;21773;50.010;19.972;2024-01-27T03:58:41;99254.97;;;8.75;100.00
35655;BME280;21773;50.010;19.972;2024-01-27T04:01:44;99235.66;;;8.58;100.00
35655;BME280;21773;50.010;19.972;2024-01-27T04:04:48;99264.44;;;8.70;100.00
35655;BME280;21773;50.010;19.972;2024-01-27T04:07:51;99277.31;;;8.82;100.00
35655;BME280;21773;50.010;19.972;2024-01-27T04:10:54;99281.66;;;8.83;100.00
35655;BME280;21773;50.010;19.972;2024-01-27T04:13:59;99292.78;;;8.80;100.00
35655;BME280;21773;50.010;19.972;2024-01-27T04:17:04;99303.59;;;8.86;100.00
35655;BME280;21773;50.010;19.972;2024-01-27T04:20:08;99305.28;;;8.94;100.00
35655;BME280;21773;50.010;19.972;2024-01-27T04:23:11;99280.81;;;8.82;100.00
35655;BME280;21773;50.010;19.972;2024-01-27T04:26:16;99288.38;;;8.65;100.00
35655;BME280;21773;50.010;19.972;2024-01-27T04:29:22;99297.06;;;8.61;100.00
35655;BME280;21773;50.010;19.972;2024-01-27T04:32:25;99307.84;;;8.67;100.00
35655;BME280;21773;50.010;19.972;2024-01-27T04:35:28;99318.41;;;8.76;100.00
35655;BME280;21773;50.010;19.972;2024-01-27T04:38:31;99317.81;;;8.80;100.00
35655;BME280;21773;50.010;19.972;2024-01-27T04:41:34;99332.31;;;8.79;100.00
35655;BME280;21773;50.010;19.972;2024-01-27T04:44:41;99323.56;;;8.64;100.00
35655;BME280;21773;50.010;19.972;2024-01-27T04:47:44;99326.44;;;8.62;100.00
35655;BME280;21773;50.010;19.972;2024-01-27T04:50:47;99328.69;;;8.59;100.00
35655;BME280;21773;50.010;19.972;2024-01-27T04:53:50;99324.50;;;8.50;100.00
35655;BME280;21773;50.010;19.972;2024-01-27T04:56:53;99324.22;;;8.38;100.00
35655;BME280;21773;50.010;19.972;2024-01-27T04:59:58;99316.81;;;8.40;100.00
35655;BME280;21773;50.010;19.972;2024-01-27T05:03:01;99323.81;;;8.41;100.00
35655;BME280;21773;50.010;19.972;2024-01-27T05:06:07;99321.53;;;8.17;100.00
35655;BME280;21773;50.010;19.972;2024-01-27T05:09:11;99324.53;;;8.28;100.00
35655;BME280;21773;50.010;19.972;2024-01-27T05:12:15;99323.53;;;8.30;100.00
35655;BME280;21773;50.010;19.972;2024-01-27T05:15:19;99329.41;;;8.40;100.00
35655;BME280;21773;50.010;19.972;2024-01-27T05:18:22;99342.69;;;8.26;100.00
35655;BME280;21773;50.010;19.972;2024-01-27T05:21:26;99347.31;;;8.33;100.00
35655;BME280;21773;50.010;19.972;2024-01-27T05:24:29;99317.69;;;8.26;100.00
35655;BME280;21773;50.010;19.972;2024-01-27T05:27:32;99337.66;;;8.38;100.00
35655;BME280;21773;50.010;19.972;2024-01-27T05:30:37;99352.94;;;8.38;100.00
35655;BME280;21773;50.010;19.972;2024-01-27T05:33:40;99350.44;;;8.36;100.00
35655;BME280;21773;50.010;19.972;2024-01-27T05:36:43;99362.72;;;8.45;100.00
35655;BME280;21773;50.010;19.972;2024-01-27T05:39:47;99353.59;;;8.40;100.00
35655;BME280;21773;50.010;19.972;2024-01-27T05:42:50;99352.06;;;8.31;100.00
35655;BME280;21773;50.010;19.972;2024-01-27T05:45:54;99352.75;;;8.39;100.00
35655;BME280;21773;50.010;19.972;2024-01-27T05:48:57;99349.41;;;8.37;100.00
35655;BME280;21773;50.010;19.972;2024-01-27T05:52:05;99353.22;;;8.49;100.00
35655;BME280;21773;50.010;19.972;2024-01-27T05:55:08;99353.00;;;8.51;100.00
35655;BME280;21773;50.010;19.972;2024-01-27T05:58:13;99353.81;;;8.45;100.00
35655;BME280;21773;50.010;19.972;2024-01-27T06:01:19;99350.06;;;8.39;100.00
35655;BME280;21773;50.010;19.972;2024-01-27T06:04:22;99350.56;;;8.56;100.00
35655;BME280;21773;50.010;19.972;2024-01-27T06:07:25;99354.44;;;8.47;100.00
35655;BME280;21773;50.010;19.972;2024-01-27T06:10:28;99353.59;;;8.46;100.00
35655;BME280;21773;50.010;19.972;2024-01-27T06:13:32;99357.78;;;8.55;100.00
35655;BME280;21773;50.010;19.972;2024-01-27T06:16:37;99351.16;;;8.51;100.00
35655;BME280;21773;50.010;19.972;2024-01-27T06:19:41;99358.78;;;8.48;100.00
35655;BME280;21773;50.010;19.972;2024-01-27T06:22:44;99369.13;;;8.44;100.00
35655;BME280;21773;50.010;19.972;2024-01-27T06:25:47;99364.47;;;8.32;100.00
35655;BME280;21773;50.010;19.972;2024-01-27T06:28:50;99372.47;;;8.25;100.00
35655;BME280;21773;50.010;19.972;2024-01-27T06:31:54;99373.03;;;8.20;100.00
35655;BME280;21773;50.010;19.972;2024-01-27T06:34:57;99382.56;;;8.23;100.00
35655;BME280;21773;50.010;19.972;2024-01-27T06:38:01;99385.56;;;8.13;100.00
35655;BME280;21773;50.010;19.972;2024-01-27T06:41:04;99369.56;;;8.26;100.00
35655;BME280;21773;50.010;19.972;2024-01-27T06:44:07;99387.16;;;8.29;100.00
35655;BME280;21773;50.010;19.972;2024-01-27T06:47:12;99371.91;;;8.30;100.00
35655;BME280;21773;50.010;19.972;2024-01-27T06:50:15;99400.44;;;8.31;100.00
35655;BME280;21773;50.010;19.972;2024-01-27T06:53:18;99402.06;;;8.32;100.00
35655;BME280;21773;50.010;19.972;2024-01-27T06:56:21;99398.84;;;8.43;100.00
35655;BME280;21773;50.010;19.972;2024-01-27T06:59:24;99393.22;;;8.16;100.00
35655;BME280;21773;50.010;19.972;2024-01-27T07:02:29;99406.28;;;8.19;100.00
35655;BME280;21773;50.010;19.972;2024-01-27T07:05:32;99421.56;;;8.19;100.00
35655;BME280;21773;50.010;19.972;2024-01-27T07:08:40;99405.34;;;8.06;100.00
35655;BME280;21773;50.010;19.972;2024-01-27T07:11:43;99423.09;;;8.28;100.00
35655;BME280;21773;50.010;19.972;2024-01-27T07:14:46;99417.97;;;8.12;100.00
35655;BME280;21773;50.010;19.972;2024-01-27T07:17:51;99411.00;;;8.17;100.00
35655;BME280;21773;50.010;19.972;2024-01-27T07:20:55;99411.41;;;8.14;100.00
35655;BME280;21773;50.010;19.972;2024-01-27T07:24:01;99413.06;;;8.37;100.00
35655;BME280;21773;50.010;19.972;2024-01-27T07:27:05;99407.66;;;8.30;100.00
35655;BME280;21773;50.010;19.972;2024-01-27T07:30:09;99404.63;;;8.40;100.00
35655;BME280;21773;50.010;19.972;2024-01-27T07:33:14;99417.75;;;8.56;100.00
35655;BME280;21773;50.010;19.972;2024-01-27T07:36:17;99417.97;;;8.54;100.00
35655;BME280;21773;50.010;19.972;2024-01-27T07:39:20;99411.34;;;8.57;100.00
35655;BME280;21773;50.010;19.972;2024-01-27T07:42:24;99419.50;;;8.70;100.00
35655;BME280;21773;50.010;19.972;2024-01-27T07:45:27;99413.88;;;8.65;100.00
35655;BME280;21773;50.010;19.972;2024-01-27T07:48:31;99416.19;;;8.68;100.00
35655;BME280;21773;50.010;19.972;2024-01-27T07:51:35;99410.28;;;8.51;100.00
35655;BME280;21773;50.010;19.972;2024-01-27T07:54:38;99429.97;;;8.58;100.00
35655;BME280;21773;50.010;19.972;2024-01-27T07:57:42;99412.44;;;8.62;100.00
35655;BME280;21773;50.010;19.972;2024-01-27T08:00:45;99411.66;;;8.68;100.00
35655;BME280;21773;50.010;19.972;2024-01-27T08:03:50;99397.19;;;8.42;100.00
35655;BME280;21773;50.010;19.972;2024-01-27T08:06:53;99407.16;;;8.48;100.00
35655;BME280;21773;50.010;19.972;2024-01-27T08:09:56;99413.50;;;8.68;100.00
35655;BME280;21773;50.010;19.972;2024-01-27T08:12:59;99410.63;;;8.69;100.00
35655;BME280;21773;50.010;19.972;2024-01-27T08:16:03;99411.53;;;8.83;100.00
35655;BME280;21773;50.010;19.972;2024-01-27T08:19:08;99402.09;;;8.59;100.00
35655;BME280;21773;50.010;19.972;2024-01-27T08:22:11;99409.59;;;8.70;100.00
35655;BME280;21773;50.010;19.972;2024-01-27T08:25:15;99422.44;;;8.75;100.00
35655;BME280;21773;50.010;19.972;2024-01-27T08:28:18;99416.28;;;8.81;100.00
35655;BME280;21773;50.010;19.972;2024-01-27T08:31:21;99417.75;;;8.84;100.00
35655;BME280;21773;50.010;19.972;2024-01-27T08:34:26;99423.38;;;8.89;100.00
35655;BME280;21773;50.010;19.972;2024-01-27T08:37:29;99430.97;;;8.79;100.00
35655;BME280;21773;50.010;19.972;2024-01-27T08:40:34;99430.47;;;8.68;100.00
35655;BME280;21773;50.010;19.972;2024-01-27T08:43:37;99444.09;;;8.67;100.00
35655;BME280;21773;50.010;19.972;2024-01-27T08:46:41;99438.19;;;8.78;100.00
35655;BME280;21773;50.010;19.972;2024-01-27T08:49:45;99447.44;;;8.69;100.00
35655;BME280;21773;50.010;19.972;2024-01-27T08:52:48;99435.00;;;8.68;100.00
35655;BME280;21773;50.010;19.972;2024-01-27T08:55:51;99429.28;;;8.78;100.00
35655;BME280;21773;50.010;19.972;2024-01-27T08:58:54;99447.03;;;8.72;100.00
35655;BME280;21773;50.010;19.972;2024-01-27T09:01:58;99430.47;;;8.68;100.00
35655;BME280;21773;50.010;19.972;2024-01-27T09:05:02;99432.84;;;8.85;100.00
35655;BME280;21773;50.010;19.972;2024-01-27T09:08:06;99437.13;;;8.73;100.00
35655;BME280;21773;50.010;19.972;2024-01-27T09:11:09;99441.31;;;8.82;100.00
35655;BME280;21773;50.010;19.972;2024-01-27T09:14:13;99441.72;;;8.85;100.00
35655;BME280;21773;50.010;19.972;2024-01-27T09:17:16;99439.63;;;8.81;100.00
35655;BME280;21773;50.010;19.972;2024-01-27T09:20:20;99456.78;;;8.80;100.00
35655;BME280;21773;50.010;19.972;2024-01-27T09:23:23;99459.88;;;8.77;100.00
35655;BME280;21773;50.010;19.972;2024-01-27T09:26:27;99457.47;;;8.60;100.00
35655;BME280;21773;50.010;19.972;2024-01-27T09:33:06;99476.59;;;8.44;100.00
35655;BME280;21773;50.010;19.972;2024-01-27T09:36:11;99488.03;;;8.32;100.00
35655;BME280;21773;50.010;19.972;2024-01-27T09:39:14;99481.34;;;8.27;100.00
35655;BME280;21773;50.010;19.972;2024-01-27T09:42:20;99489.78;;;8.39;100.00
35655;BME280;21773;50.010;19.972;2024-01-27T09:45:24;99500.16;;;8.27;100.00
35655;BME280;21773;50.010;19.972;2024-01-27T09:48:28;99498.31;;;8.28;100.00
35655;BME280;21773;50.010;19.972;2024-01-27T09:51:34;99494.88;;;8.34;100.00
35655;BME280;21773;50.010;19.972;2024-01-27T09:54:37;99500.84;;;8.30;100.00
35655;BME280;21773;50.010;19.972;2024-01-27T09:57:41;99462.25;;;8.16;100.00
35655;BME280;21773;50.010;19.972;2024-01-27T10:00:45;99482.50;;;8.18;100.00
35655;BME280;21773;50.010;19.972;2024-01-27T10:03:49;99481.59;;;8.11;100.00
35655;BME280;21773;50.010;19.972;2024-01-27T10:06:56;99489.22;;;8.08;100.00
35655;BME280;21773;50.010;19.972;2024-01-27T10:10:00;99489.22;;;8.08;100.00
35655;BME280;21773;50.010;19.972;2024-01-27T10:13:04;99486.00;;;7.98;100.00
35655;BME280;21773;50.010;19.972;2024-01-27T10:16:08;99499.56;;;7.90;100.00
35655;BME280;21773;50.010;19.972;2024-01-27T10:19:15;99490.81;;;7.81;100.00
35655;BME280;21773;50.010;19.972;2024-01-27T10:22:21;99489.97;;;7.80;100.00
35655;BME280;21773;50.010;19.972;2024-01-27T10:25:24;99482.66;;;7.74;100.00
35655;BME280;21773;50.010;19.972;2024-01-27T10:28:27;99497.41;;;7.64;100.00
35655;BME280;21773;50.010;19.972;2024-01-27T10:31:34;99489.31;;;7.43;100.00
35655;BME280;21773;50.010;19.972;2024-01-27T10:34:37;99490.38;;;7.48;100.00
35655;BME280;21773;50.010;19.972;2024-01-27T10:37:43;99494.00;;;7.55;100.00
35655;BME280;21773;50.010;19.972;2024-01-27T10:40:46;99483.72;;;7.44;100.00
35655;BME280;21773;50.010;19.972;2024-01-27T10:43:50;99489.47;;;7.41;100.00
35655;BME280;21773;50.010;19.972;2024-01-27T10:46:56;99475.13;;;7.34;100.00
35655;BME280;21773;50.010;19.972;2024-01-27T10:50:07;99476.81;;;7.35;100.00
35655;BME280;21773;50.010;19.972;2024-01-27T10:53:21;99495.19;;;7.38;100.00
35655;BME280;21773;50.010;19.972;2024-01-27T10:56:27;99495.97;;;7.47;100.00
35655;BME280;21773;50.010;19.972;2024-01-27T10:59:30;99494.84;;;7.41;100.00
35655;BME280;21773;50.010;19.972;2024-01-27T11:02:35;99483.41;;;7.32;100.00
35655;BME280;21773;50.010;19.972;2024-01-27T11:05:42;99489.94;;;7.30;100.00
35655;BME280;21773;50.010;19.972;2024-01-27T11:08:49;99489.50;;;7.26;100.00
35655;BME280;21773;50.010;19.972;2024-01-27T11:11:53;99490.59;;;7.17;100.00
35655;BME280;21773;50.010;19.972;2024-01-27T11:14:56;99491.06;;;7.35;100.00
35655;BME280;21773;50.010;19.972;2024-01-27T11:18:00;99488.66;;;7.40;100.00
35655;BME280;21773;50.010;19.972;2024-01-27T11:21:06;99501.31;;;7.61;100.00
35655;BME280;21773;50.010;19.972;2024-01-27T11:24:14;99491.19;;;7.63;100.00
35655;BME280;21773;50.010;19.972;2024-01-27T11:27:18;99506.56;;;7.69;100.00
35655;BME280;21773;50.010;19.972;2024-01-27T11:30:26;99505.34;;;7.72;100.00
35655;BME280;21773;50.010;19.972;2024-01-27T11:33:30;99506.16;;;7.72;100.00
35655;BME280;21773;50.010;19.972;2024-01-27T11:36:34;99505.25;;;7.80;100.00
35655;BME280;21773;50.010;19.972;2024-01-27T11:39:38;99502.63;;;7.87;100.00
35655;BME280;21773;50.010;19.972;2024-01-27T11:42:42;99514.13;;;7.80;100.00
35655;BME280;21773;50.010;19.972;2024-01-27T11:45:55;99499.16;;;7.93;100.00
35655;BME280;21773;50.010;19.972;2024-01-27T11:48:58;99507.69;;;7.96;100.00
35655;BME280;21773;50.010;19.972;2024-01-27T11:52:01;99509.06;;;7.92;100.00
35655;BME280;21773;50.010;19.972;2024-01-27T11:55:07;99505.38;;;7.93;100.00
35655;BME280;21773;50.010;19.972;2024-01-27T11:58:10;99514.88;;;7.74;100.00
35655;BME280;21773;50.010;19.972;2024-01-27T12:01:13;99509.97;;;7.63;100.00
35655;BME280;21773;50.010;19.972;2024-01-27T12:04:17;99510.63;;;7.65;100.00
35655;BME280;21773;50.010;19.972;2024-01-27T12:07:21;99511.75;;;7.71;100.00
35655;BME280;21773;50.010;19.972;2024-01-27T12:10:26;99521.28;;;7.59;100.00
35655;BME280;21773;50.010;19.972;2024-01-27T12:13:29;99512.31;;;7.52;100.00
35655;BME280;21773;50.010;19.972;2024-01-27T12:16:32;99512.31;;;7.52;100.00
35655;BME280;21773;50.010;19.972;2024-01-27T12:19:36;99516.91;;;7.58;100.00
35655;BME280;21773;50.010;19.972;2024-01-27T12:22:39;99526.47;;;7.60;100.00
35655;BME280;21773;50.010;19.972;2024-01-27T12:25:52;99526.47;;;7.60;100.00
35655;BME280;21773;50.010;19.972;2024-01-27T12:28:56;99531.53;;;7.70;100.00
35655;BME280;21773;50.010;19.972;2024-01-27T12:32:00;99537.00;;;7.76;100.00
35655;BME280;21773;50.010;19.972;2024-01-27T12:35:04;99549.75;;;7.89;100.00
35655;BME280;21773;50.010;19.972;2024-01-27T12:38:09;99534.03;;;7.86;100.00
35655;BME280;21773;50.010;19.972;2024-01-27T12:41:14;99550.00;;;7.94;100.00
35655;BME280;21773;50.010;19.972;2024-01-27T12:44:17;99545.50;;;7.80;100.00
35655;BME280;21773;50.010;19.972;2024-01-27T12:47:20;99552.25;;;7.91;100.00
35655;BME280;21773;50.010;19.972;2024-01-27T12:50:23;99545.91;;;7.98;100.00
35655;BME280;21773;50.010;19.972;2024-01-27T12:53:26;99565.94;;;7.96;100.00
35655;BME280;21773;50.010;19.972;2024-01-27T12:56:31;99571.66;;;7.93;100.00
35655;BME280;21773;50.010;19.972;2024-01-27T12:59:36;99569.81;;;7.93;100.00
35655;BME280;21773;50.010;19.972;2024-01-27T13:02:40;99575.47;;;7.83;100.00
35655;BME280;21773;50.010;19.972;2024-01-27T13:05:43;99570.66;;;7.94;100.00
35655;BME280;21773;50.010;19.972;2024-01-27T13:08:46;99585.94;;;7.93;100.00
35655;BME280;21773;50.010;19.972;2024-01-27T13:11:50;99567.53;;;7.75;100.00
35655;BME280;21773;50.010;19.972;2024-01-27T13:14:54;99585.38;;;7.83;100.00
35655;BME280;21773;50.010;19.972;2024-01-27T13:17:57;99591.75;;;7.82;100.00
35655;BME280;21773;50.010;19.972;2024-01-27T13:21:00;99591.13;;;7.80;100.00
35655;BME280;21773;50.010;19.972;2024-01-27T13:24:06;99582.16;;;7.58;100.00
35655;BME280;21773;50.010;19.972;2024-01-27T13:27:12;99596.88;;;7.77;100.00
35655;BME280;21773;50.010;19.972;2024-01-27T13:30:16;99606.97;;;7.75;100.00
35655;BME280;21773;50.010;19.972;2024-01-27T13:33:21;99613.81;;;7.77;100.00
35655;BME280;21773;50.010;19.972;2024-01-27T13:36:29;99621.13;;;7.83;100.00
35655;BME280;21773;50.010;19.972;2024-01-27T13:39:32;99621.69;;;7.79;100.00
35655;BME280;21773;50.010;19.972;2024-01-27T13:42:38;99630.94;;;7.76;100.00
35655;BME280;21773;50.010;19.972;2024-01-27T13:45:41;99621.13;;;7.83;100.00
35655;BME280;21773;50.010;19.972;2024-01-27T13:48:45;99635.66;;;7.89;100.00
35655;BME280;21773;50.010;19.972;2024-01-27T13:51:48;99637.50;;;7.89;100.00
35655;BME280;21773;50.010;19.972;2024-01-27T13:54:52;99640.84;;;7.91;100.00
35655;BME280;21773;50.010;19.972;2024-01-27T13:57:56;99640.56;;;7.86;100.00
35655;BME280;21773;50.010;19.972;2024-01-27T14:00:59;99644.09;;;7.86;100.00
35655;BME280;21773;50.010;19.972;2024-01-27T14:04:03;99647.94;;;7.98;100.00
35655;BME280;21773;50.010;19.972;2024-01-27T14:07:07;99649.34;;;8.09;100.00
35655;BME280;21773;50.010;19.972;2024-01-27T14:10:11;99653.41;;;8.05;100.00
35655;BME280;21773;50.010;19.972;2024-01-27T14:13:16;99661.38;;;8.13;100.00
35655;BME280;21773;50.010;19.972;2024-01-27T14:16:19;99664.06;;;8.13;100.00
35655;BME280;21773;50.010;19.972;2024-01-27T14:19:22;99675.44;;;8.15;100.00
35655;BME280;21773;50.010;19.972;2024-01-27T14:22:26;99679.06;;;8.07;100.00
35655;BME280;21773;50.010;19.972;2024-01-27T14:25:30;99676.09;;;8.17;100.00
35655;BME280;21773;50.010;19.972;2024-01-27T14:28:34;99685.44;;;8.21;100.00
35655;BME280;21773;50.010;19.972;2024-01-27T14:31:38;99688.78;;;8.23;100.00
35655;BME280;21773;50.010;19.972;2024-01-27T14:34:41;99689.03;;;8.28;100.00
35655;BME280;21773;50.010;19.972;2024-01-27T14:37:44;99694.41;;;8.28;100.00
35655;BME280;21773;50.010;19.972;2024-01-27T14:40:48;99698.13;;;8.27;100.00
35655;BME280;21773;50.010;19.972;2024-01-27T14:43:52;99697.50;;;8.25;100.00
35655;BME280;21773;50.010;19.972;2024-01-27T14:46:56;99704.16;;;8.29;100.00
35655;BME280;21773;50.010;19.972;2024-01-27T14:50:00;99706.91;;;8.21;100.00
35655;BME280;21773;50.010;19.972;2024-01-27T14:53:03;99713.97;;;8.22;100.00
35655;BME280;21773;50.010;19.972;2024-01-27T14:56:07;99716.84;;;8.20;100.00
35655;BME280;21773;50.010;19.972;2024-01-27T14:59:12;99700.75;;;8.06;100.00
35655;BME280;21773;50.010;19.972;2024-01-27T15:02:15;99726.94;;;8.18;100.00
35655;BME280;21773;50.010;19.972;2024-01-27T15:05:25;99738.06;;;8.15;100.00
35655;BME280;21773;50.010;19.972;2024-01-27T15:08:28;99738.91;;;8.16;100.00
35655;BME280;21773;50.010;19.972;2024-01-27T15:11:31;99752.59;;;8.21;100.00
35655;BME280;21773;50.010;19.972;2024-01-27T15:14:35;99754.63;;;8.19;100.00
35655;BME280;21773;50.010;19.972;2024-01-27T15:17:38;99757.72;;;8.16;100.00
35655;BME280;21773;50.010;19.972;2024-01-27T15:20:42;99750.28;;;8.18;100.00
35655;BME280;21773;50.010;19.972;2024-01-27T15:23:45;99763.44;;;8.13;100.00
35655;BME280;21773;50.010;19.972;2024-01-27T15:26:48;99781.09;;;8.07;100.00
35655;BME280;21773;50.010;19.972;2024-01-27T15:29:55;99783.91;;;8.14;100.00
35655;BME280;21773;50.010;19.972;2024-01-27T15:32:58;99793.44;;;8.16;100.00
35655;BME280;21773;50.010;19.972;2024-01-27T15:36:01;99795.66;;;8.13;100.00
35655;BME280;21773;50.010;19.972;2024-01-27T15:39:05;99806.78;;;8.10;100.00
35655;BME280;21773;50.010;19.972;2024-01-27T15:42:09;99806.50;;;8.05;100.00
35655;BME280;21773;50.010;19.972;2024-01-27T15:45:14;99799.81;;;8.01;100.00
35655;BME280;21773;50.010;19.972;2024-01-27T15:48:17;99818.53;;;8.09;100.00
35655;BME280;21773;50.010;19.972;2024-01-27T15:51:21;99787.22;;;7.87;100.00
35655;BME280;21773;50.010;19.972;2024-01-27T15:54:24;99822.97;;;8.16;100.00
35655;BME280;21773;50.010;19.972;2024-01-27T15:57:27;99836.22;;;8.18;100.00
35655;BME280;21773;50.010;19.972;2024-01-27T16:00:33;99837.72;;;8.20;100.00
35655;BME280;21773;50.010;19.972;2024-01-27T16:03:37;99833.38;;;8.19;100.00
35655;BME280;21773;50.010;19.972;2024-01-27T16:06:40;99848.38;;;8.14;100.00